createdAt,value
2019-04-20T00:01:05.518Z,21.40
2019-04-20T00:03:40.113Z,21.30
2019-04-20T00:06:06.954Z,21.30
2019-04-20T00:08:40.751Z,21.30
2019-04-20T00:11:17.684Z,21.30
2019-04-20T00:13:48.960Z,21.20
2019-04-20T00:16:10.859Z,21.20
2019-04-20T00:18:47.980Z,21.20
2019-04-20T00:21:30.833Z,21.20
2019-04-20T00:24:10.094Z,21.10
2019-04-20T00:27:04.758Z,21.10
2019-04-20T00:29:25.342Z,21.10
2019-04-20T00:31:50.393Z,21.10
2019-04-20T00:34:17.045Z,21.10
2019-04-20T00:36:41.099Z,21.10
2019-04-20T00:39:13.189Z,21.20
2019-04-20T00:41:49.012Z,21.20
2019-04-20T00:44:21.960Z,21.20
2019-04-20T00:46:55.583Z,21.20
2019-04-20T00:49:32.217Z,21.20
2019-04-20T00:52:13.030Z,21.10
2019-04-20T00:54:20.141Z,21.10
2019-04-20T00:56:49.934Z,21.10
2019-04-20T00:59:32.333Z,21.10
2019-04-20T01:02:10.816Z,21.10
2019-04-20T01:04:46.237Z,21.10
2019-04-20T01:07:17.523Z,21.00
2019-04-20T01:09:54.201Z,21.00
2019-04-20T01:12:28.014Z,21.00
2019-04-20T01:15:02.293Z,21.00
2019-04-20T01:17:26.810Z,21.00
2019-04-20T01:19:56.856Z,21.00
2019-04-20T01:22:28.681Z,21.00
2019-04-20T01:25:05.029Z,21.00
2019-04-20T01:27:42.462Z,21.00
2019-04-20T01:30:10.811Z,20.90
2019-04-20T01:32:51.736Z,20.90
2019-04-20T01:35:27.247Z,20.90
2019-04-20T01:37:57.475Z,20.90
2019-04-20T01:40:09.913Z,20.90
2019-04-20T01:42:40.359Z,20.90
2019-04-20T01:45:18.035Z,20.90
2019-04-20T01:47:46.196Z,20.90
2019-04-20T01:50:19.174Z,20.90
2019-04-20T01:52:56.936Z,20.90
2019-04-20T01:55:40.057Z,20.80
2019-04-20T01:58:17.604Z,20.80
2019-04-20T02:00:36.173Z,20.80
2019-04-20T02:03:24.049Z,20.80
2019-04-20T02:05:59.138Z,20.70
2019-04-20T02:08:28.149Z,20.70
2019-04-20T02:11:00.325Z,20.60
2019-04-20T02:13:34.752Z,20.60
2019-04-20T02:16:10.235Z,20.60
2019-04-20T02:18:42.098Z,20.60
2019-04-20T02:21:19.818Z,20.60
2019-04-20T02:23:45.528Z,20.60
2019-04-20T02:26:05.514Z,20.60
2019-04-20T02:29:03.315Z,20.60
2019-04-20T02:34:28.513Z,20.60
2019-04-20T02:39:51.365Z,20.50
2019-04-20T02:42:24.895Z,20.50
2019-04-20T02:47:36.196Z,20.50
2019-04-20T02:50:09.212Z,20.50
2019-04-20T02:52:32.705Z,20.50
2019-04-20T02:55:02.167Z,20.50
2019-04-20T02:57:34.040Z,20.50
2019-04-20T03:00:07.061Z,20.50
2019-04-20T03:02:16.748Z,20.50
2019-04-20T03:04:40.262Z,20.40
2019-04-20T03:07:14.889Z,20.40
2019-04-20T03:09:51.098Z,20.40
2019-04-20T03:12:29.146Z,20.30
2019-04-20T03:14:52.707Z,20.30
2019-04-20T03:17:32.715Z,20.30
2019-04-20T03:19:55.038Z,20.30
2019-04-20T03:22:47.891Z,20.30
2019-04-20T03:25:06.277Z,20.20
2019-04-20T03:27:32.943Z,20.20
2019-04-20T03:31:04.075Z,20.20
2019-04-20T03:33:12.058Z,20.10
2019-04-20T03:35:37.151Z,20.10
2019-04-20T03:38:04.649Z,20.10
2019-04-20T03:40:32.376Z,20.10
2019-04-20T03:42:44.690Z,20.10
2019-04-20T03:45:18.374Z,20.00
2019-04-20T03:47:56.111Z,20.00
2019-04-20T03:50:44.397Z,20.00
2019-04-20T03:53:19.831Z,20.00
2019-04-20T03:55:47.490Z,20.00
2019-04-20T03:58:19.822Z,20.00
2019-04-20T04:00:49.892Z,19.90
2019-04-20T04:03:47.532Z,19.90
2019-04-20T04:06:04.135Z,19.90
2019-04-20T04:08:32.245Z,19.80
2019-04-20T04:11:12.462Z,19.80
2019-04-20T04:13:26.945Z,19.80
2019-04-20T04:16:02.832Z,19.80
2019-04-20T04:18:35.415Z,19.80
2019-04-20T04:21:06.302Z,19.80
2019-04-20T04:23:50.296Z,19.80
2019-04-20T04:26:22.332Z,19.80
2019-04-20T04:28:49.036Z,19.80
2019-04-20T04:31:22.958Z,19.80
2019-04-20T04:36:21.139Z,19.70
2019-04-20T04:39:05.462Z,19.70
2019-04-20T04:41:35.032Z,19.70
2019-04-20T04:44:00.691Z,19.70
2019-04-20T04:46:14.457Z,19.70
2019-04-20T04:48:47.478Z,19.70
2019-04-20T04:51:21.211Z,19.70
2019-04-20T04:53:55.185Z,19.70
2019-04-20T04:56:20.578Z,19.70
2019-04-20T04:58:49.644Z,19.70
2019-04-20T05:01:25.283Z,19.70
2019-04-20T05:04:18.424Z,19.80
2019-04-20T05:06:34.429Z,19.80
2019-04-20T05:09:00.135Z,19.80
2019-04-20T05:11:25.912Z,19.80
2019-04-20T05:14:02.194Z,19.80
2019-04-20T05:16:46.357Z,19.80
2019-04-20T05:19:19.595Z,19.80
2019-04-20T05:22:01.386Z,19.80
2019-04-20T05:24:27.035Z,19.90
2019-04-20T05:27:06.012Z,19.90
2019-04-20T05:29:19.660Z,19.90
2019-04-20T05:31:51.791Z,19.90
2019-04-20T05:34:38.706Z,20.00
2019-04-20T05:37:17.952Z,20.00
2019-04-20T05:39:38.228Z,20.10
2019-04-20T05:42:09.303Z,20.20
2019-04-20T05:44:45.776Z,20.20
2019-04-20T05:47:16.908Z,20.30
2019-04-20T05:49:48.444Z,20.30
2019-04-20T05:52:31.634Z,20.40
2019-04-20T05:54:51.308Z,20.50
2019-04-20T05:57:25.255Z,20.60
2019-04-20T06:00:00.617Z,20.70
2019-04-20T06:02:22.891Z,20.80
2019-04-20T06:05:06.942Z,20.90
2019-04-20T06:10:00.492Z,21.20
2019-04-20T06:12:31.702Z,21.30
2019-04-20T06:15:09.420Z,21.50
2019-04-20T06:18:01.010Z,21.70
2019-04-20T06:20:36.597Z,21.90
2019-04-20T06:23:14.257Z,22.10
2019-04-20T06:25:53.000Z,22.20
2019-04-20T06:28:12.853Z,22.40
2019-04-20T06:30:45.537Z,22.60
2019-04-20T06:34:09.753Z,22.80
2019-04-20T06:36:35.359Z,22.90
2019-04-20T06:41:56.768Z,23.20
2019-04-20T06:44:08.794Z,23.50
2019-04-20T06:46:37.489Z,23.70
2019-04-20T06:49:11.845Z,23.90
2019-04-20T06:51:45.276Z,24.20
2019-04-20T06:54:07.294Z,24.40
2019-04-20T06:56:55.729Z,24.60
2019-04-20T06:59:28.964Z,24.90
2019-04-20T07:02:17.213Z,25.10
2019-04-20T07:07:02.394Z,25.70
2019-04-20T07:09:45.208Z,25.90
2019-04-20T07:11:56.810Z,26.20
2019-04-20T07:14:25.748Z,26.50
2019-04-20T07:17:20.546Z,26.90
2019-04-20T07:19:46.571Z,27.30
2019-04-20T07:22:33.757Z,27.70
2019-04-20T07:25:01.286Z,28.10
2019-04-20T07:27:30.800Z,28.40
2019-04-20T07:30:03.485Z,28.70
2019-04-20T07:32:32.608Z,29.00
2019-04-20T07:35:03.076Z,29.30
2019-04-20T07:40:13.836Z,29.70
2019-04-20T07:42:40.997Z,29.70
2019-04-20T07:45:19.923Z,29.70
2019-04-20T07:48:02.789Z,29.50
2019-04-20T07:50:07.513Z,29.40
2019-04-20T07:52:33.915Z,29.20
2019-04-20T07:57:46.089Z,28.50
2019-04-20T08:00:21.421Z,28.20
2019-04-20T08:03:11.696Z,28.00
2019-04-20T08:05:33.626Z,27.70
2019-04-20T08:08:17.175Z,27.40
2019-04-20T08:10:39.394Z,27.20
2019-04-20T08:13:30.571Z,27.10
2019-04-20T08:18:27.136Z,26.90
2019-04-20T08:20:52.894Z,26.80
2019-04-20T08:23:23.597Z,26.70
2019-04-20T08:25:46.818Z,26.70
2019-04-20T08:28:28.397Z,26.70
2019-04-20T08:31:07.411Z,26.70
2019-04-20T08:33:47.081Z,26.60
2019-04-20T08:36:16.842Z,26.70
2019-04-20T08:39:11.509Z,26.80
2019-04-20T08:41:31.623Z,26.80
2019-04-20T08:44:30.896Z,26.90
2019-04-20T08:46:53.633Z,26.90
2019-04-20T08:49:22.419Z,27.00
2019-04-20T08:51:49.780Z,26.90
2019-04-20T08:54:14.352Z,26.90
2019-04-20T08:56:35.990Z,26.90
2019-04-20T08:58:57.842Z,27.00
2019-04-20T09:01:30.856Z,27.00
2019-04-20T09:04:07.728Z,27.10
2019-04-20T09:06:47.099Z,27.20
2019-04-20T09:09:31.825Z,27.20
2019-04-20T09:11:57.634Z,27.20
2019-04-20T09:14:25.322Z,27.30
2019-04-20T09:17:07.073Z,27.20
2019-04-20T09:19:44.565Z,27.30
2019-04-20T09:22:28.307Z,27.20
2019-04-20T09:25:24.962Z,27.20
2019-04-20T09:27:33.975Z,27.10
2019-04-20T09:30:09.155Z,27.20
2019-04-20T09:32:48.845Z,27.20
2019-04-20T09:35:25.390Z,27.20
2019-04-20T09:38:09.276Z,27.20
2019-04-20T09:40:41.649Z,27.30
2019-04-20T09:42:55.003Z,27.40
2019-04-20T09:45:33.906Z,27.40
2019-04-20T09:47:58.781Z,27.50
2019-04-20T09:50:47.588Z,27.50
2019-04-20T09:53:14.110Z,27.60
2019-04-20T09:55:53.306Z,27.60
2019-04-20T09:58:18.039Z,27.70
2019-04-20T10:00:59.466Z,27.80
2019-04-20T10:03:16.576Z,28.00
2019-04-20T10:05:47.592Z,28.00
2019-04-20T10:08:19.611Z,28.10
2019-04-20T10:10:51.185Z,28.20
2019-04-20T10:13:21.612Z,28.20
2019-04-20T10:15:51.519Z,28.30
2019-04-20T10:18:21.905Z,28.30
2019-04-20T10:20:51.690Z,28.30
2019-04-20T10:23:22.692Z,28.40
2019-04-20T10:25:52.558Z,28.60
2019-04-20T10:28:23.451Z,28.60
2019-04-20T10:30:54.738Z,28.70
2019-04-20T10:33:25.701Z,28.90
2019-04-20T10:35:55.505Z,29.00
2019-04-20T10:38:27.589Z,29.20
2019-04-20T10:41:08.198Z,29.30
2019-04-20T10:43:30.212Z,29.50
2019-04-20T10:46:00.466Z,29.60
2019-04-20T10:48:32.042Z,29.70
2019-04-20T10:51:03.050Z,29.80
2019-04-20T10:53:34.007Z,29.80
2019-04-20T10:56:03.787Z,29.90
2019-04-20T10:58:33.945Z,30.00
2019-04-20T11:01:03.936Z,30.00
2019-04-20T11:03:34.591Z,30.10
2019-04-20T11:06:04.820Z,30.20
2019-04-20T11:08:35.053Z,30.30
2019-04-20T11:11:13.101Z,30.40
2019-04-20T11:13:37.485Z,30.50
2019-04-20T11:16:08.494Z,30.70
2019-04-20T11:18:39.629Z,30.70
2019-04-20T11:21:11.276Z,30.70
2019-04-20T11:23:44.413Z,30.60
2019-04-20T11:26:16.073Z,30.50
2019-04-20T11:28:46.227Z,30.60
2019-04-20T11:31:16.619Z,30.60
2019-04-20T11:33:46.465Z,30.70
2019-04-20T11:36:17.145Z,30.60
2019-04-20T11:38:47.073Z,30.50
2019-04-20T11:41:23.546Z,30.40
2019-04-20T11:43:49.390Z,30.40
2019-04-20T11:46:19.183Z,30.30
2019-04-20T11:48:49.596Z,30.20
2019-04-20T11:51:19.337Z,30.30
2019-04-20T11:53:50.164Z,30.10
2019-04-20T11:56:24.898Z,30.00
2019-04-20T11:58:53.061Z,30.00
2019-04-20T12:01:47.906Z,30.10
2019-04-20T12:04:26.170Z,30.10
2019-04-20T12:06:44.603Z,30.10
2019-04-20T12:09:14.904Z,30.10
2019-04-20T12:11:56.009Z,30.30
2019-04-20T12:14:16.671Z,30.50
2019-04-20T12:16:47.787Z,30.80
2019-04-20T12:19:18.662Z,31.10
2019-04-20T12:21:49.569Z,31.40
2019-04-20T12:24:20.450Z,31.70
2019-04-20T12:26:51.017Z,31.90
2019-04-20T12:29:21.691Z,32.10
2019-04-20T12:31:56.292Z,32.30
2019-04-20T12:34:23.210Z,32.50
2019-04-20T12:36:55.296Z,32.70
2019-04-20T12:39:25.111Z,32.90
2019-04-20T12:41:58.866Z,33.00
2019-04-20T12:44:26.250Z,33.00
2019-04-20T12:46:57.100Z,33.10
2019-04-20T12:49:27.596Z,33.20
2019-04-20T12:52:00.226Z,33.30
2019-04-20T12:54:29.068Z,33.40
2019-04-20T12:56:58.930Z,33.40
2019-04-20T12:59:29.664Z,33.40
2019-04-20T13:01:59.515Z,33.40
2019-04-20T13:04:30.169Z,33.50
2019-04-20T13:07:01.667Z,33.60
2019-04-20T13:09:34.655Z,33.70
2019-04-20T13:12:19.330Z,33.70
2019-04-20T13:15:02.431Z,33.70
2019-04-20T13:17:32.399Z,33.70
2019-04-20T13:20:02.011Z,33.70
2019-04-20T13:22:32.808Z,33.70
2019-04-20T13:25:05.253Z,33.70
2019-04-20T13:27:34.614Z,33.80
2019-04-20T13:30:07.019Z,33.90
2019-04-20T13:32:38.140Z,33.90
2019-04-20T13:35:09.945Z,33.90
2019-04-20T13:37:41.764Z,34.00
2019-04-20T13:40:12.265Z,34.10
2019-04-20T13:42:42.030Z,34.10
2019-04-20T13:45:12.899Z,34.10
2019-04-20T13:47:43.245Z,34.00
2019-04-20T13:50:14.330Z,34.00
2019-04-20T13:52:44.671Z,34.00
2019-04-20T13:55:15.705Z,34.00
2019-04-20T13:57:57.935Z,34.10
2019-04-20T14:00:45.061Z,34.10
2019-04-20T14:03:16.809Z,34.00
2019-04-20T14:05:46.871Z,34.00
2019-04-20T14:08:19.588Z,34.00
2019-04-20T14:10:49.783Z,34.00
2019-04-20T14:13:21.883Z,34.00
2019-04-20T14:15:51.254Z,33.90
2019-04-20T14:18:21.105Z,33.90
2019-04-20T14:20:52.073Z,33.80
2019-04-20T14:23:23.103Z,33.70
2019-04-20T14:25:54.567Z,33.70
2019-04-20T14:28:24.916Z,33.70
2019-04-20T14:30:56.017Z,33.70
2019-04-20T14:33:26.587Z,33.80
2019-04-20T14:35:56.974Z,33.70
2019-04-20T14:38:26.730Z,33.70
2019-04-20T14:40:58.059Z,33.70
2019-04-20T14:43:30.166Z,33.70
2019-04-20T14:45:59.051Z,33.70
2019-04-20T14:48:28.963Z,33.60
2019-04-20T14:50:59.361Z,33.60
2019-04-20T14:53:29.509Z,33.50
2019-04-20T14:55:59.727Z,33.50
2019-04-20T14:58:43.937Z,33.40
2019-04-20T15:01:22.769Z,33.40
2019-04-20T15:03:59.800Z,33.40
2019-04-20T15:06:25.425Z,33.40
2019-04-20T15:08:56.611Z,33.30
2019-04-20T15:11:27.138Z,33.30
2019-04-20T15:13:58.505Z,33.20
2019-04-20T15:16:28.745Z,33.20
2019-04-20T15:19:00.345Z,33.20
2019-04-20T15:21:35.520Z,33.10
2019-04-20T15:24:24.850Z,33.10
2019-04-20T15:26:54.473Z,33.00
2019-04-20T15:29:24.314Z,32.90
2019-04-20T15:31:54.315Z,32.90
2019-04-20T15:34:24.776Z,32.90
2019-04-20T15:36:55.742Z,32.80
2019-04-20T15:39:27.253Z,32.80
2019-04-20T15:41:57.181Z,32.70
2019-04-20T15:44:27.219Z,32.60
2019-04-20T15:46:57.495Z,32.60
2019-04-20T15:49:28.170Z,32.50
2019-04-20T15:51:59.758Z,32.40
2019-04-20T15:54:29.661Z,32.40
2019-04-20T15:57:04.601Z,32.30
2019-04-20T15:59:30.721Z,32.30
2019-04-20T16:02:11.619Z,32.30
2019-04-20T16:04:52.607Z,32.20
2019-04-20T16:07:23.461Z,32.10
2019-04-20T16:09:53.193Z,32.10
2019-04-20T16:12:24.644Z,32.00
2019-04-20T16:14:55.499Z,32.00
2019-04-20T16:17:33.732Z,32.00
2019-04-20T16:20:02.888Z,31.90
2019-04-20T16:22:29.161Z,31.90
2019-04-20T16:25:01.254Z,31.90
2019-04-20T16:27:36.051Z,31.90
2019-04-20T16:30:09.649Z,31.80
2019-04-20T16:32:40.656Z,31.80
2019-04-20T16:35:16.256Z,31.70
2019-04-20T16:45:01.262Z,31.50
2019-04-20T16:45:59.280Z,31.60
2019-04-20T16:48:30.393Z,31.60
2019-04-20T16:51:00.778Z,31.50
2019-04-20T16:53:30.953Z,31.50
2019-04-20T16:56:01.232Z,31.50
2019-04-20T16:58:31.516Z,31.50
2019-04-20T17:01:01.532Z,31.50
2019-04-20T17:03:41.101Z,31.40
2019-04-20T17:06:04.345Z,31.40
2019-04-20T17:08:34.227Z,31.30
2019-04-20T17:11:04.018Z,31.30
2019-04-20T17:13:40.486Z,31.30
2019-04-20T17:16:05.912Z,31.20
2019-04-20T17:18:37.239Z,31.10
2019-04-20T17:21:14.657Z,31.00
2019-04-20T17:23:41.770Z,30.90
2019-04-20T17:26:12.080Z,30.80
2019-04-20T17:28:46.944Z,30.80
2019-04-20T17:31:25.237Z,30.70
2019-04-20T17:34:06.598Z,30.60
2019-04-20T17:36:32.716Z,30.50
2019-04-20T17:39:06.741Z,30.50
2019-04-20T17:41:48.887Z,30.40
2019-04-20T17:44:19.925Z,30.30
2019-04-20T17:46:44.932Z,30.30
2019-04-20T17:49:24.438Z,30.20
2019-04-20T17:51:58.066Z,30.10
2019-04-20T17:54:27.688Z,30.00
2019-04-20T17:56:58.194Z,30.00
2019-04-20T17:59:28.389Z,29.80
2019-04-20T18:02:19.057Z,29.70
2019-04-20T18:05:11.515Z,29.50
2019-04-20T18:07:36.250Z,29.40
2019-04-20T18:10:05.800Z,29.30
2019-04-20T18:12:25.207Z,29.10
2019-04-20T18:14:58.066Z,29.00
2019-04-20T18:17:32.660Z,28.90
2019-04-20T18:19:54.500Z,28.70
2019-04-20T18:22:25.759Z,28.60
2019-04-20T18:25:12.193Z,28.40
2019-04-20T18:27:41.095Z,28.20
2019-04-20T18:30:16.018Z,27.90
2019-04-20T18:32:37.634Z,27.80
2019-04-20T18:35:22.511Z,27.70
2019-04-20T18:37:59.315Z,27.60
2019-04-20T18:40:32.381Z,27.40
2019-04-20T18:43:05.254Z,27.10
2019-04-20T18:45:42.395Z,27.00
2019-04-20T18:48:15.968Z,26.80
2019-04-20T18:50:37.208Z,26.70
2019-04-20T18:53:01.035Z,26.60
2019-04-20T18:55:43.141Z,26.50
2019-04-20T18:58:02.228Z,26.40
2019-04-20T19:00:36.393Z,26.30
2019-04-20T19:03:14.576Z,26.20
2019-04-20T19:05:35.895Z,26.20
2019-04-20T19:08:10.472Z,26.00
2019-04-20T19:10:40.381Z,26.00
2019-04-20T19:13:23.376Z,25.90
2019-04-20T19:16:14.783Z,25.80
2019-04-20T19:19:04.253Z,25.70
2019-04-20T19:21:22.429Z,25.60
2019-04-20T19:24:01.448Z,25.40
2019-04-20T19:26:25.026Z,25.30
2019-04-20T19:28:59.400Z,25.30
2019-04-20T19:31:42.571Z,25.20
2019-04-20T19:34:15.248Z,25.10
2019-04-20T19:36:36.955Z,25.00
2019-04-20T19:39:19.698Z,24.90
2019-04-20T19:41:44.391Z,24.80
2019-04-20T19:44:16.068Z,24.80
2019-04-20T19:46:56.677Z,24.70
2019-04-20T19:49:19.261Z,24.60
2019-04-20T19:52:02.828Z,24.60
2019-04-20T19:54:30.823Z,24.50
2019-04-20T19:57:00.508Z,24.50
2019-04-20T19:59:23.320Z,24.40
2019-04-20T20:01:47.547Z,24.40
2019-04-20T20:04:17.595Z,24.40
2019-04-20T20:06:53.249Z,24.30
2019-04-20T20:09:20.043Z,24.30
2019-04-20T20:11:51.429Z,24.20
2019-04-20T20:14:31.973Z,24.20
2019-04-20T20:17:08.441Z,24.10
2019-04-20T20:19:37.164Z,24.10
2019-04-20T20:22:05.590Z,24.00
2019-04-20T20:24:27.206Z,24.00
2019-04-20T20:27:05.470Z,24.00
2019-04-20T20:33:04.694Z,23.90
2019-04-20T20:35:23.877Z,23.90
2019-04-20T20:37:57.068Z,23.80
2019-04-20T20:40:30.293Z,23.80
2019-04-20T20:43:09.699Z,23.80
2019-04-20T20:45:33.730Z,23.80
2019-04-20T20:48:15.825Z,23.80
2019-04-20T20:50:50.169Z,23.70
2019-04-20T20:53:12.563Z,23.70
2019-04-20T20:55:42.106Z,23.70
2019-04-20T20:58:11.380Z,23.60
2019-04-20T21:00:45.687Z,23.60
2019-04-20T21:03:14.581Z,23.50
2019-04-20T21:05:39.790Z,23.60
2019-04-20T21:08:09.638Z,23.50
2019-04-20T21:10:42.357Z,23.50
2019-04-20T21:13:12.613Z,23.50
2019-04-20T21:15:45.437Z,23.40
2019-04-20T21:18:35.111Z,23.40
2019-04-20T21:21:04.543Z,23.40
2019-04-20T21:23:32.654Z,23.20
2019-04-20T21:26:22.842Z,23.10
2019-04-20T21:28:43.786Z,23.00
2019-04-20T21:31:20.391Z,23.00
2019-04-20T21:33:47.015Z,23.00
2019-04-20T21:36:21.808Z,23.00
2019-04-20T21:38:50.108Z,23.00
2019-04-20T21:41:23.928Z,23.00
2019-04-20T21:43:54.058Z,23.00
2019-04-20T21:46:24.905Z,23.00
2019-04-20T21:49:09.711Z,23.00
2019-04-20T21:51:37.050Z,23.00
2019-04-20T21:54:04.954Z,22.90
2019-04-20T21:56:46.137Z,22.80
2019-04-20T21:59:16.440Z,22.80
2019-04-20T22:01:55.022Z,22.80
2019-04-20T22:04:16.420Z,22.80
2019-04-20T22:06:50.011Z,22.70
2019-04-20T22:09:25.087Z,22.70
2019-04-20T22:11:58.013Z,22.60
2019-04-20T22:14:32.227Z,22.60
2019-04-20T22:17:03.946Z,22.50
2019-04-20T22:19:44.064Z,22.50
2019-04-20T22:22:18.547Z,22.40
2019-04-20T22:24:56.387Z,22.30
2019-04-20T22:27:21.128Z,22.20
2019-04-20T22:29:48.161Z,22.20
2019-04-20T22:32:23.551Z,22.10
2019-04-20T22:35:01.359Z,22.00
2019-04-20T22:37:31.495Z,22.00
2019-04-20T22:40:03.283Z,22.00
2019-04-20T22:42:40.130Z,22.00
2019-04-20T22:45:12.368Z,22.00
2019-04-20T22:47:42.665Z,21.90
2019-04-20T22:50:31.351Z,21.90
2019-04-20T22:52:56.928Z,21.90
2019-04-20T22:55:42.843Z,21.90
2019-04-20T22:58:01.304Z,21.90
2019-04-20T23:00:36.564Z,21.80
2019-04-20T23:02:54.691Z,21.90
2019-04-20T23:05:24.717Z,21.80
2019-04-20T23:07:54.772Z,21.80
2019-04-20T23:10:33.583Z,21.80
2019-04-20T23:12:59.493Z,21.80
2019-04-20T23:15:28.049Z,21.80
2019-04-20T23:17:58.074Z,21.80
2019-04-20T23:20:32.637Z,21.70
2019-04-20T23:22:59.132Z,21.70
2019-04-20T23:25:29.270Z,21.70
2019-04-20T23:28:06.473Z,21.70
2019-04-20T23:30:35.764Z,21.70
2019-04-20T23:33:02.239Z,21.70
2019-04-20T23:35:33.368Z,21.70
2019-04-20T23:38:11.022Z,21.50
2019-04-20T23:40:34.629Z,21.50
2019-04-20T23:43:25.428Z,21.50
2019-04-20T23:45:54.786Z,21.60
2019-04-20T23:48:40.962Z,21.50
2019-04-20T23:51:28.975Z,21.50
2019-04-20T23:53:52.204Z,21.40
2019-04-20T23:56:15.564Z,21.40
2019-04-20T23:58:46.438Z,21.40
